F/V Kreiz Ar Mor — FGTS — position and weather

sailwx.info

Track history (hours):
 
Tides and Currents Weather Stations Pressure Air Temp Water Temp Dewpoint Dewpoint Depression Visibility Wind Speed Wind Dir Waves Ship Positions

F/V Kreiz Ar Mor

Last reported at 2018-Jul-18 08:53 UTC. Time now 2018-Jul-18 12:27 UTC.
Position N 48°06' W 004°19'.

Length 22 m.

Type: Fishing. MMSI: 227867000.

Date/timePositionNaut miles runAvg speedWind from/ knotsBaromVisibWave heightAir tempDewpointWater temp
2018-Jul-18 08:53N 48°06' W 004°19'0 0.0
2018-Jul-18 08:30N 48°06' W 004°19'0 0.0
2018-Jul-16 09:19N 48°06' W 004°19'0 0.0
2018-Jul-16 08:58N 48°06' W 004°19'0 0.0
2018-Jul-16 08:30N 48°06' W 004°19'  
2018-Jul-13 08:52N 48°06' W 004°19'0 0.0
2018-Jul-12 08:20N 48°06' W 004°19'0 0.0
2018-Jul-12 07:49N 48°06' W 004°19'0 0.0
2018-Jul-12 06:04N 48°06' W 004°19'0 0.0
2018-Jul-12 05:59N 48°06' W 004°19'0 0.0
2018-Jul-12 05:18N 48°06' W 004°19'0 0.1
2018-Jul-12 04:12N 48°06' W 004°20'0 0.0
2018-Jul-12 03:59N 48°06' W 004°20'0 0.0
2018-Jul-12 03:28N 48°06' W 004°20'0 0.0
2018-Jul-12 02:46N 48°06' W 004°20'0 0.0
2018-Jul-12 01:12N 48°06' W 004°20'1 3.4
2018-Jul-12 01:00N 48°07' W 004°20'4 8.3
2018-Jul-12 00:30N 48°07' W 004°26'4 8.8
2018-Jul-12 00:00N 48°07' W 004°32'4 9.0
2018-Jul-11 23:30N 48°06' W 004°39'5 9.8
2018-Jul-11 23:00N 48°06' W 004°47'4 8.7
2018-Jul-11 22:30N 48°06' W 004°53'12 7.5
2018-Jul-11 20:53N 48°04' W 005°11'40 1.3
2018-Jul-10 14:49N 47°36' W 005°53'1 1.1
2018-Jul-10 13:58N 47°36' W 005°51'0 1.0
2018-Jul-10 13:30N 47°36' W 005°50'1 1.6
2018-Jul-10 13:00N 47°36' W 005°49'1 1.6
2018-Jul-10 12:26N 47°36' W 005°48'3 4.2
2018-Jul-10 11:41N 47°37' W 005°52'3 0.4
2018-Jul-10 04:43N 47°34' W 005°53'3 1.8
2018-Jul-10 03:16N 47°33' W 005°56'4 5.4
2018-Jul-10 02:32N 47°36' W 005°53'0 6.3
2018-Jul-10 02:30N 47°37' W 005°53'3 2.1
2018-Jul-10 01:11N 47°38' W 005°49'4 0.3
2018-Jul-09 09:43N 47°33' W 005°50'1 1.5
2018-Jul-09 09:10N 47°34' W 005°48'1 5.0
2018-Jul-09 08:54N 47°34' W 005°50'1 1.5
2018-Jul-09 08:28N 47°33' W 005°51'1 1.9
2018-Jul-09 08:00N 47°33' W 005°53'0 0.9
2018-Jul-09 07:30N 47°33' W 005°53'1 1.8
2018-Jul-09 07:00N 47°33' W 005°55'2 2.9
2018-Jul-09 06:29N 47°35' W 005°53'2 4.5
2018-Jul-09 06:00N 47°33' W 005°50'1 1.9
2018-Jul-09 05:28N 47°33' W 005°52'1 1.7
2018-Jul-09 04:58N 47°33' W 005°53'1 1.3
2018-Jul-09 04:26N 47°33' W 005°54'1 1.7
2018-Jul-09 04:00N 47°33' W 005°55'1 2.4
2018-Jul-09 03:29N 47°31' W 005°55'3 6.2
2018-Jul-09 03:00N 47°34' W 005°52'3 6.0
2018-Jul-09 02:30N 47°36' W 005°49'2 3.2
2018-Jul-09 02:00N 47°36' W 005°47'3 5.1
2018-Jul-09 01:25N 47°33' W 005°48'2 5.2
2018-Jul-09 01:00N 47°31' W 005°49'2 0.7
2018-Jul-08 22:53N 47°32' W 005°51'3 3.3
2018-Jul-08 21:58N 47°30' W 005°55'  
Track history (hours):
 
Tides and Currents Weather Stations Pressure Air Temp Water Temp Dewpoint Dewpoint Depression Visibility Wind Speed Wind Dir Waves Ship Positions

F/V Kreiz Ar Mor

Last reported at 2018-Jul-18 08:53 UTC. Time now 2018-Jul-18 12:27 UTC.
Position N 48°06' W 004°19'.

Length 22 m.

Type: Fishing. MMSI: 227867000.

Date/timePositionNaut miles runAvg speedWind from/ knotsBaromVisibWave heightAir tempDewpointWater temp
2018-Jul-18 08:53N 48°06' W 004°19'0 0.0
2018-Jul-18 08:30N 48°06' W 004°19'0 0.0
2018-Jul-16 09:19N 48°06' W 004°19'0 0.0
2018-Jul-16 08:58N 48°06' W 004°19'0 0.0
2018-Jul-16 08:30N 48°06' W 004°19'  
2018-Jul-13 08:52N 48°06' W 004°19'0 0.0
2018-Jul-12 08:20N 48°06' W 004°19'0 0.0
2018-Jul-12 07:49N 48°06' W 004°19'0 0.0
2018-Jul-12 06:04N 48°06' W 004°19'0 0.0
2018-Jul-12 05:59N 48°06' W 004°19'0 0.0
2018-Jul-12 05:18N 48°06' W 004°19'0 0.1
2018-Jul-12 04:12N 48°06' W 004°20'0 0.0
2018-Jul-12 03:59N 48°06' W 004°20'0 0.0
2018-Jul-12 03:28N 48°06' W 004°20'0 0.0
2018-Jul-12 02:46N 48°06' W 004°20'0 0.0
2018-Jul-12 01:12N 48°06' W 004°20'1 3.4
2018-Jul-12 01:00N 48°07' W 004°20'4 8.3
2018-Jul-12 00:30N 48°07' W 004°26'4 8.8
2018-Jul-12 00:00N 48°07' W 004°32'4 9.0
2018-Jul-11 23:30N 48°06' W 004°39'5 9.8
2018-Jul-11 23:00N 48°06' W 004°47'4 8.7
2018-Jul-11 22:30N 48°06' W 004°53'12 7.5
2018-Jul-11 20:53N 48°04' W 005°11'40 1.3
2018-Jul-10 14:49N 47°36' W 005°53'1 1.1
2018-Jul-10 13:58N 47°36' W 005°51'0 1.0
2018-Jul-10 13:30N 47°36' W 005°50'1 1.6
2018-Jul-10 13:00N 47°36' W 005°49'1 1.6
2018-Jul-10 12:26N 47°36' W 005°48'3 4.2
2018-Jul-10 11:41N 47°37' W 005°52'3 0.4
2018-Jul-10 04:43N 47°34' W 005°53'3 1.8
2018-Jul-10 03:16N 47°33' W 005°56'4 5.4
2018-Jul-10 02:32N 47°36' W 005°53'0 6.3
2018-Jul-10 02:30N 47°37' W 005°53'3 2.1
2018-Jul-10 01:11N 47°38' W 005°49'4 0.3
2018-Jul-09 09:43N 47°33' W 005°50'1 1.5
2018-Jul-09 09:10N 47°34' W 005°48'1 5.0
2018-Jul-09 08:54N 47°34' W 005°50'1 1.5
2018-Jul-09 08:28N 47°33' W 005°51'1 1.9
2018-Jul-09 08:00N 47°33' W 005°53'0 0.9
2018-Jul-09 07:30N 47°33' W 005°53'1 1.8
2018-Jul-09 07:00N 47°33' W 005°55'2 2.9
2018-Jul-09 06:29N 47°35' W 005°53'2 4.5
2018-Jul-09 06:00N 47°33' W 005°50'1 1.9
2018-Jul-09 05:28N 47°33' W 005°52'1 1.7
2018-Jul-09 04:58N 47°33' W 005°53'1 1.3
2018-Jul-09 04:26N 47°33' W 005°54'1 1.7
2018-Jul-09 04:00N 47°33' W 005°55'1 2.4
2018-Jul-09 03:29N 47°31' W 005°55'3 6.2
2018-Jul-09 03:00N 47°34' W 005°52'3 6.0
2018-Jul-09 02:30N 47°36' W 005°49'2 3.2
2018-Jul-09 02:00N 47°36' W 005°47'3 5.1
2018-Jul-09 01:25N 47°33' W 005°48'2 5.2
2018-Jul-09 01:00N 47°31' W 005°49'2 0.7
2018-Jul-08 22:53N 47°32' W 005°51'3 3.3
2018-Jul-08 21:58N 47°30' W 005°55'  

Dump ship's entire track history